Time;durP1;ratioP1;P1;durP2;ratioP2;P2;SDS_P1;SDS_P2;PMS_P1;PMS_P2;Temp;Humidity;BMP_temperature;BMP_pressure;BME280_temperature;BME280_humidity;BME280_pressure;Samples;Min_cycle;Max_cycle;Signal;HPM_P1;HPM_P2
2023/03/26 00:01:35;;;;;;;;;;;8.40;87.30;;;;;;5135781;28;19926;-69
2023/03/26 00:04:02;;;;;;;;;;;8.40;87.30;;;;;;5135912;28;19966;-69
2023/03/26 00:06:28;;;;;;;;;;;8.50;87.30;;;;;;5135816;28;19922;-69
2023/03/26 00:08:56;;;;;;;;;;;8.40;87.20;;;;;;5135733;28;19915;-69
2023/03/26 00:11:22;;;;;;;;;;;8.50;87.20;;;;;;5135654;28;19951;-69
2023/03/26 00:13:48;;;;;;;;;;;8.50;87.20;;;;;;5135644;28;19916;-69
2023/03/26 00:16:15;;;;;;;;;;;8.40;87.10;;;;;;5135490;28;19930;-70
2023/03/26 00:18:41;;;;;;;;;;;8.60;87.20;;;;;;5135404;28;20377;-69
2023/03/26 00:21:07;;;;;;;;;;;8.50;87.10;;;;;;5115200;28;19920;-69
2023/03/26 00:23:34;;;;;;;;;;;8.60;87.10;;;;;;5135335;28;19938;-69
2023/03/26 00:26:00;;;;;;;;;;;8.50;87.10;;;;;;5115809;28;19916;-70
2023/03/26 00:28:26;;;;;;;;;;;8.50;87.10;;;;;;5135290;28;19916;-70
2023/03/26 00:30:59;;;;;;;;;;;8.50;87.00;;;;;;5135206;28;19938;-69
2023/03/26 00:33:25;;;;;;;;;;;8.60;87.00;;;;;;5135213;28;19911;-70
2023/03/26 00:35:52;;;;;;;;;;;8.60;87.10;;;;;;5135074;28;20018;-69
2023/03/26 00:38:19;;;;;;;;;;;8.60;87.10;;;;;;5135100;28;20860;-69
2023/03/26 00:40:46;;;;;;;;;;;8.60;87.10;;;;;;5115487;28;19926;-69
2023/03/26 00:43:17;;;;;;;;;;;8.50;87.10;;;;;;5135025;28;20002;-69
2023/03/26 00:45:47;;;;;;;;;;;8.60;87.20;;;;;;5135047;28;19915;-70
2023/03/26 00:48:12;;;;;;;;;;;8.70;87.30;;;;;;5134960;28;20428;-69
2023/03/26 00:50:38;;;;;;;;;;;8.60;87.30;;;;;;5134859;28;20006;-70
2023/03/26 00:53:07;;;;;;;;;;;8.50;87.30;;;;;;5134989;28;19916;-69
2023/03/26 00:55:33;;;;;;;;;;;8.50;87.30;;;;;;5134889;28;20388;-70
2023/03/26 00:57:59;;;;;;;;;;;8.60;87.40;;;;;;5134866;28;19915;-70
2023/03/26 01:00:30;;;;;;;;;;;8.50;87.40;;;;;;5134787;28;19972;-69
2023/03/26 01:02:57;;;;;;;;;;;8.60;87.40;;;;;;5134454;28;20372;-70
2023/03/26 01:05:41;;;;;;;;;;;8.60;87.40;;;;;;5134447;28;19953;-70
2023/03/26 01:08:19;;;;;;;;;;;8.50;87.40;;;;;;5132200;28;19916;-69
2023/03/26 01:10:49;;;;;;;;;;;8.50;87.40;;;;;;5134290;28;20284;-70
2023/03/26 01:13:19;;;;;;;;;;;8.60;87.50;;;;;;5134323;28;20265;-69
2023/03/26 01:15:49;;;;;;;;;;;8.50;87.50;;;;;;5116069;28;19955;-69
2023/03/26 01:18:17;;;;;;;;;;;8.50;87.50;;;;;;5134337;28;19915;-70
2023/03/26 01:20:45;;;;;;;;;;;8.50;87.60;;;;;;5134079;28;20028;-70
2023/03/26 01:23:14;;;;;;;;;;;8.60;87.70;;;;;;5115037;28;19916;-70
2023/03/26 01:25:44;;;;;;;;;;;8.50;87.70;;;;;;5134080;28;20375;-70
2023/03/26 01:28:11;;;;;;;;;;;8.50;87.80;;;;;;5097753;28;19962;-70
2023/03/26 01:30:41;;;;;;;;;;;8.50;87.80;;;;;;5134012;28;19964;-70
2023/03/26 01:33:15;;;;;;;;;;;8.50;87.80;;;;;;5113922;28;19916;-69
2023/03/26 01:35:44;;;;;;;;;;;8.50;87.80;;;;;;5131427;28;20372;-69
2023/03/26 01:38:26;;;;;;;;;;;8.50;87.80;;;;;;5133212;27;19954;-69
2023/03/26 01:40:57;;;;;;;;;;;8.60;87.90;;;;;;5115253;28;20315;-69
2023/03/26 01:43:30;;;;;;;;;;;8.60;87.80;;;;;;5133629;28;19955;-69
2023/03/26 01:45:57;;;;;;;;;;;8.50;87.70;;;;;;5133832;28;19915;-69
2023/03/26 01:48:31;;;;;;;;;;;8.50;87.80;;;;;;5113274;28;19968;-70
2023/03/26 01:50:57;;;;;;;;;;;8.50;87.80;;;;;;5133748;28;20002;-71
2023/03/26 01:53:23;;;;;;;;;;;8.50;87.90;;;;;;5133621;28;20351;-70
2023/03/26 01:56:11;;;;;;;;;;;8.50;87.90;;;;;;5133584;28;19915;-70
2023/03/26 01:58:47;;;;;;;;;;;8.50;87.90;;;;;;5133891;28;19915;-70
2023/03/26 02:01:23;;;;;;;;;;;8.50;87.90;;;;;;5133460;28;19919;-69
2023/03/26 02:03:52;;;;;;;;;;;8.50;87.90;;;;;;5133555;28;19923;-70
2023/03/26 02:06:22;;;;;;;;;;;8.50;87.80;;;;;;5133353;28;19922;-70
2023/03/26 02:08:54;;;;;;;;;;;8.50;87.80;;;;;;5133148;28;19938;-70
2023/03/26 02:11:20;;;;;;;;;;;8.60;87.90;;;;;;5114046;28;19912;-70
2023/03/26 02:13:46;;;;;;;;;;;8.60;87.90;;;;;;5133334;28;19915;-70
2023/03/26 02:16:13;;;;;;;;;;;8.60;87.90;;;;;;5133264;28;19912;-70
2023/03/26 02:18:40;;;;;;;;;;;8.60;87.90;;;;;;5133188;28;19916;-69
2023/03/26 02:21:11;;;;;;;;;;;8.60;87.90;;;;;;5133253;28;20010;-70
2023/03/26 02:23:39;;;;;;;;;;;8.70;87.90;;;;;;5133303;28;19915;-70
2023/03/26 02:26:05;;;;;;;;;;;8.60;87.80;;;;;;5133219;28;19915;-69
2023/03/26 02:28:31;;;;;;;;;;;8.70;87.80;;;;;;5112612;28;20297;-69
2023/03/26 02:31:00;;;;;;;;;;;8.70;87.80;;;;;;5133364;28;19916;-70
2023/03/26 02:33:27;;;;;;;;;;;8.80;87.90;;;;;;5133030;28;19994;-69
2023/03/26 02:35:52;;;;;;;;;;;8.70;87.90;;;;;;5133148;28;20010;-69
2023/03/26 02:38:18;;;;;;;;;;;8.70;87.80;;;;;;5133435;28;19962;-69
2023/03/26 02:40:43;;;;;;;;;;;8.70;87.80;;;;;;5133010;28;19934;-69
2023/03/26 02:43:09;;;;;;;;;;;8.70;87.80;;;;;;5133383;28;19937;-69
2023/03/26 02:45:34;;;;;;;;;;;8.80;87.80;;;;;;5132923;28;19915;-69
2023/03/26 02:48:00;;;;;;;;;;;8.80;87.80;;;;;;5133029;28;19920;-69
2023/03/26 02:50:25;;;;;;;;;;;8.80;87.80;;;;;;5135753;27;19916;-69
2023/03/26 02:52:52;;;;;;;;;;;8.70;87.70;;;;;;5136401;28;19923;-69
2023/03/26 02:55:17;;;;;;;;;;;8.70;87.70;;;;;;5117426;28;20211;-69
2023/03/26 02:57:43;;;;;;;;;;;8.70;87.60;;;;;;5136397;28;19971;-69
2023/03/26 03:00:12;;;;;;;;;;;8.70;87.60;;;;;;5136194;28;19923;-69
2023/03/26 03:02:37;;;;;;;;;;;8.80;87.70;;;;;;5117777;28;20376;-69
2023/03/26 03:05:04;;;;;;;;;;;8.70;87.60;;;;;;5136341;28;19919;-69
2023/03/26 03:07:30;;;;;;;;;;;8.80;87.60;;;;;;5116406;28;19954;-69
2023/03/26 03:10:01;;;;;;;;;;;8.90;87.70;;;;;;5136196;28;19958;-70
2023/03/26 03:12:26;;;;;;;;;;;8.80;87.60;;;;;;5136805;28;19922;-69
2023/03/26 03:14:52;;;;;;;;;;;8.90;87.70;;;;;;5136377;28;20310;-69
2023/03/26 03:17:19;;;;;;;;;;;8.80;87.60;;;;;;5136291;28;19924;-69
2023/03/26 03:19:45;;;;;;;;;;;8.80;87.60;;;;;;5115959;28;19927;-69
2023/03/26 03:22:11;;;;;;;;;;;8.80;87.60;;;;;;5136047;28;20292;-69
2023/03/26 03:24:37;;;;;;;;;;;8.80;87.60;;;;;;5136047;28;19915;-69
2023/03/26 03:27:03;;;;;;;;;;;8.80;87.60;;;;;;5135979;28;19916;-69
2023/03/26 03:29:29;;;;;;;;;;;8.90;87.70;;;;;;5100610;28;19915;-69
2023/03/26 03:31:54;;;;;;;;;;;8.80;87.70;;;;;;5135912;28;20390;-69
2023/03/26 03:34:20;;;;;;;;;;;8.80;87.70;;;;;;5135895;28;19916;-69
2023/03/26 03:36:47;;;;;;;;;;;8.80;87.70;;;;;;5135698;28;19922;-69
2023/03/26 03:39:14;;;;;;;;;;;8.80;87.80;;;;;;5135671;28;19930;-69
2023/03/26 03:41:39;;;;;;;;;;;8.80;87.80;;;;;;5135547;28;20394;-69
2023/03/26 03:44:05;;;;;;;;;;;8.80;87.80;;;;;;5136336;28;19916;-69
2023/03/26 03:46:31;;;;;;;;;;;8.80;87.90;;;;;;5135595;28;20337;-70
2023/03/26 03:48:56;;;;;;;;;;;8.80;87.90;;;;;;5135356;28;20018;-69
2023/03/26 03:51:22;;;;;;;;;;;8.80;87.90;;;;;;5135470;28;19958;-69
2023/03/26 03:53:48;;;;;;;;;;;8.70;87.90;;;;;;5135449;28;19963;-69
2023/03/26 03:56:16;;;;;;;;;;;8.80;88.00;;;;;;5135337;28;19959;-69
2023/03/26 03:58:44;;;;;;;;;;;8.80;88.00;;;;;;5135405;28;19915;-69
2023/03/26 04:01:11;;;;;;;;;;;8.80;88.00;;;;;;5114731;28;20365;-69
2023/03/26 04:03:37;;;;;;;;;;;8.80;88.00;;;;;;5117282;28;20321;-69
2023/03/26 04:06:05;;;;;;;;;;;8.80;88.00;;;;;;5117125;28;19927;-69
2023/03/26 04:08:31;;;;;;;;;;;8.70;88.00;;;;;;5135881;28;19998;-69
2023/03/26 04:10:57;;;;;;;;;;;8.70;88.00;;;;;;5135529;28;20008;-69
2023/03/26 04:13:22;;;;;;;;;;;8.80;88.00;;;;;;5100060;28;19979;-69
2023/03/26 04:15:48;;;;;;;;;;;8.80;88.00;;;;;;5135575;28;19976;-69
2023/03/26 04:18:14;;;;;;;;;;;8.80;88.10;;;;;;5135890;28;19919;-70
2023/03/26 04:20:45;;;;;;;;;;;8.80;88.10;;;;;;5135365;28;19926;-70
2023/03/26 04:23:13;;;;;;;;;;;8.80;88.10;;;;;;5135352;28;19916;-70
2023/03/26 04:25:41;;;;;;;;;;;8.80;88.20;;;;;;5135276;28;20323;-70
2023/03/26 04:28:07;;;;;;;;;;;8.80;88.20;;;;;;5135936;28;19915;-69
2023/03/26 04:30:33;;;;;;;;;;;8.80;88.20;;;;;;5135236;28;20292;-69
2023/03/26 04:33:02;;;;;;;;;;;8.70;88.20;;;;;;5135681;28;19919;-70
2023/03/26 04:35:33;;;;;;;;;;;8.80;88.30;;;;;;5135141;28;19915;-70
2023/03/26 04:37:58;;;;;;;;;;;8.70;88.20;;;;;;5114657;28;19923;-69
2023/03/26 04:40:24;;;;;;;;;;;8.70;88.20;;;;;;5134889;28;19927;-69
2023/03/26 04:42:53;;;;;;;;;;;8.80;88.30;;;;;;5115343;28;19912;-70
2023/03/26 04:45:21;;;;;;;;;;;8.70;88.20;;;;;;5134992;28;20280;-70
2023/03/26 04:47:47;;;;;;;;;;;8.80;88.30;;;;;;5135124;28;20357;-70
2023/03/26 04:50:13;;;;;;;;;;;8.70;88.30;;;;;;5134743;28;19916;-71
2023/03/26 04:52:39;;;;;;;;;;;8.70;88.30;;;;;;5135369;28;19922;-71
2023/03/26 04:55:06;;;;;;;;;;;8.80;88.30;;;;;;5134943;28;19951;-71
2023/03/26 04:57:37;;;;;;;;;;;8.70;88.30;;;;;;5134963;28;20002;-71
2023/03/26 05:00:21;;;;;;;;;;;8.80;88.30;;;;;;5134739;28;19984;-71
2023/03/26 05:02:49;;;;;;;;;;;8.90;88.40;;;;;;5135018;28;20383;-71
2023/03/26 05:05:16;;;;;;;;;;;8.80;88.30;;;;;;5134897;28;20326;-71
2023/03/26 05:07:41;;;;;;;;;;;8.80;88.30;;;;;;5134955;28;19922;-71
2023/03/26 05:10:07;;;;;;;;;;;8.70;88.30;;;;;;5134842;28;20375;-71
2023/03/26 05:12:33;;;;;;;;;;;8.80;88.40;;;;;;5133306;27;19915;-71
2023/03/26 05:14:59;;;;;;;;;;;8.90;88.40;;;;;;5115251;28;19922;-71
2023/03/26 05:17:25;;;;;;;;;;;8.80;88.40;;;;;;5134499;28;20005;-71
2023/03/26 05:19:51;;;;;;;;;;;8.80;88.40;;;;;;5134408;28;20360;-71
2023/03/26 05:22:17;;;;;;;;;;;8.80;88.40;;;;;;5115237;28;19923;-71
2023/03/26 05:24:43;;;;;;;;;;;8.80;88.40;;;;;;5134600;28;19951;-71
2023/03/26 05:27:16;;;;;;;;;;;8.80;88.40;;;;;;5134388;28;19916;-71
2023/03/26 05:29:41;;;;;;;;;;;8.90;88.50;;;;;;5134383;28;20001;-71
2023/03/26 05:32:08;;;;;;;;;;;8.80;88.40;;;;;;5134377;28;20063;-71
2023/03/26 05:34:33;;;;;;;;;;;8.80;88.50;;;;;;5134300;28;19918;-71
2023/03/26 05:36:59;;;;;;;;;;;8.80;88.50;;;;;;5134268;28;20333;-71
2023/03/26 05:39:25;;;;;;;;;;;8.90;88.50;;;;;;5134102;28;19912;-71
2023/03/26 05:41:51;;;;;;;;;;;8.80;88.50;;;;;;5115009;28;19919;-71
2023/03/26 05:44:17;;;;;;;;;;;8.80;88.40;;;;;;5134196;28;20015;-71
2023/03/26 05:46:42;;;;;;;;;;;8.80;88.40;;;;;;5133929;28;19951;-71
2023/03/26 05:49:08;;;;;;;;;;;8.90;88.50;;;;;;5134010;28;19972;-71
2023/03/26 05:51:34;;;;;;;;;;;8.80;88.40;;;;;;5134093;28;19915;-71
2023/03/26 05:53:59;;;;;;;;;;;8.80;88.40;;;;;;5134003;28;19938;-71
2023/03/26 05:56:25;;;;;;;;;;;8.80;88.50;;;;;;5133842;28;19923;-71
2023/03/26 05:58:50;;;;;;;;;;;8.80;88.50;;;;;;5133866;28;19922;-71
2023/03/26 06:01:17;;;;;;;;;;;8.90;88.60;;;;;;5114036;28;19919;-71
2023/03/26 06:03:43;;;;;;;;;;;8.80;88.60;;;;;;5134200;28;19960;-71
2023/03/26 06:06:14;;;;;;;;;;;8.80;88.60;;;;;;5115402;28;20004;-71
2023/03/26 06:08:48;;;;;;;;;;;8.80;88.70;;;;;;5114442;28;19916;-71
2023/03/26 06:11:13;;;;;;;;;;;8.80;88.70;;;;;;5133641;28;20010;-71
2023/03/26 06:13:39;;;;;;;;;;;8.80;88.70;;;;;;5133702;28;20030;-71
2023/03/26 06:16:05;;;;;;;;;;;8.80;88.70;;;;;;5133674;28;19915;-71
2023/03/26 06:18:30;;;;;;;;;;;8.80;88.60;;;;;;5133955;28;19916;-71
2023/03/26 06:20:56;;;;;;;;;;;8.80;88.60;;;;;;5133459;28;19931;-71
2023/03/26 06:23:22;;;;;;;;;;;8.80;88.60;;;;;;5133250;27;20372;-71
2023/03/26 06:25:47;;;;;;;;;;;8.80;88.60;;;;;;5133179;28;20027;-71
2023/03/26 06:28:14;;;;;;;;;;;8.90;88.60;;;;;;5133518;28;20021;-71
2023/03/26 06:30:39;;;;;;;;;;;8.90;88.60;;;;;;5134021;28;20002;-71
2023/03/26 06:33:05;;;;;;;;;;;8.90;88.60;;;;;;5115060;28;20375;-71
2023/03/26 06:35:31;;;;;;;;;;;8.80;88.50;;;;;;5133331;28;19915;-71
2023/03/26 06:37:57;;;;;;;;;;;8.90;88.60;;;;;;5133451;28;20060;-71
2023/03/26 06:40:22;;;;;;;;;;;8.90;88.60;;;;;;5112896;28;20395;-71
2023/03/26 06:42:48;;;;;;;;;;;8.90;88.60;;;;;;5114408;28;19936;-71
2023/03/26 06:45:13;;;;;;;;;;;8.80;88.50;;;;;;5115083;28;19922;-71
2023/03/26 06:47:39;;;;;;;;;;;8.90;88.50;;;;;;5112964;28;20289;-71
2023/03/26 06:50:05;;;;;;;;;;;8.90;88.50;;;;;;5133398;28;19926;-71
2023/03/26 06:52:30;;;;;;;;;;;8.90;88.50;;;;;;5133324;28;19923;-71
2023/03/26 06:54:56;;;;;;;;;;;8.90;88.50;;;;;;5133251;28;20010;-71
2023/03/26 06:57:21;;;;;;;;;;;8.90;88.50;;;;;;5114897;28;19927;-71
2023/03/26 06:59:47;;;;;;;;;;;8.90;88.60;;;;;;5132990;28;19915;-71
2023/03/26 07:02:13;;;;;;;;;;;8.90;88.60;;;;;;5114815;28;19916;-71
2023/03/26 07:04:38;;;;;;;;;;;8.90;88.60;;;;;;5132977;28;20284;-71
2023/03/26 07:07:04;;;;;;;;;;;8.90;88.60;;;;;;5113343;28;19959;-71
2023/03/26 07:09:29;;;;;;;;;;;9.00;88.60;;;;;;5132873;28;19915;-71
2023/03/26 07:11:56;;;;;;;;;;;9.00;88.50;;;;;;5132736;28;20407;-71
2023/03/26 07:14:23;;;;;;;;;;;9.00;88.40;;;;;;5132865;28;19922;-71
2023/03/26 07:16:49;;;;;;;;;;;9.00;88.40;;;;;;5133125;28;19923;-71
2023/03/26 07:19:15;;;;;;;;;;;9.00;88.40;;;;;;5132941;28;19915;-71
2023/03/26 07:21:40;;;;;;;;;;;9.00;88.40;;;;;;5132790;28;19920;-71
2023/03/26 07:24:09;;;;;;;;;;;9.00;88.30;;;;;;5113015;28;19916;-72
2023/03/26 07:26:50;;;;;;;;;;;9.10;88.40;;;;;;5132898;28;19919;-71
2023/03/26 07:29:19;;;;;;;;;;;9.10;88.30;;;;;;5132813;28;19915;-71
2023/03/26 07:31:50;;;;;;;;;;;9.00;88.30;;;;;;5114001;28;19920;-72
2023/03/26 07:34:36;;;;;;;;;;;9.10;88.30;;;;;;5114188;28;19915;-72
2023/03/26 07:37:07;;;;;;;;;;;9.10;88.30;;;;;;5118673;28;19919;-72
2023/03/26 07:39:52;;;;;;;;;;;9.10;88.30;;;;;;5136283;28;19916;-71
2023/03/26 07:42:37;;;;;;;;;;;9.10;88.30;;;;;;5136052;28;19919;-71
2023/03/26 07:45:14;;;;;;;;;;;9.10;88.30;;;;;;5135739;28;20372;-71
2023/03/26 07:47:40;;;;;;;;;;;9.10;88.40;;;;;;5136050;28;19951;-71
2023/03/26 07:50:07;;;;;;;;;;;9.10;88.40;;;;;;5135860;28;19967;-71
2023/03/26 07:52:33;;;;;;;;;;;9.20;88.50;;;;;;5135887;28;19919;-71
2023/03/26 07:54:58;;;;;;;;;;;9.10;88.40;;;;;;5136011;28;20452;-71
2023/03/26 07:57:34;;;;;;;;;;;9.20;88.30;;;;;;5115391;28;19916;-72
2023/03/26 08:00:09;;;;;;;;;;;9.10;88.30;;;;;;5136155;28;19915;-71
2023/03/26 08:02:45;;;;;;;;;;;9.20;88.40;;;;;;5135737;28;20261;-71
2023/03/26 08:05:25;;;;;;;;;;;9.20;88.40;;;;;;5135606;28;20318;-71
2023/03/26 08:08:01;;;;;;;;;;;9.20;88.40;;;;;;5135691;28;19915;-71
2023/03/26 08:10:47;;;;;;;;;;;9.30;88.40;;;;;;5115266;28;19916;-71
2023/03/26 08:13:21;;;;;;;;;;;9.30;88.40;;;;;;5119960;28;19976;-71
2023/03/26 08:16:00;;;;;;;;;;;9.30;88.40;;;;;;5132414;28;19999;-71
2023/03/26 08:18:45;;;;;;;;;;;9.40;88.50;;;;;;5134528;28;19922;-72
2023/03/26 08:21:15;;;;;;;;;;;9.30;89.00;;;;;;5119076;28;19968;-71
2023/03/26 08:23:50;;;;;;;;;;;9.40;88.40;;;;;;5135357;28;19924;-72
2023/03/26 08:26:22;;;;;;;;;;;9.40;88.30;;;;;;5135429;28;20364;-72
2023/03/26 08:29:01;;;;;;;;;;;9.40;88.30;;;;;;5135561;28;20296;-71
2023/03/26 08:31:32;;;;;;;;;;;9.40;88.30;;;;;;5135296;28;20333;-71
2023/03/26 08:33:57;;;;;;;;;;;9.40;88.30;;;;;;5116245;28;20395;-71
2023/03/26 08:36:26;;;;;;;;;;;9.40;89.00;;;;;;5115520;28;19916;-71
2023/03/26 08:38:52;;;;;;;;;;;9.40;88.40;;;;;;5135115;28;20424;-71
2023/03/26 08:41:27;;;;;;;;;;;9.50;88.40;;;;;;5116553;28;20009;-71
2023/03/26 08:44:13;;;;;;;;;;;9.40;88.30;;;;;;5135112;28;20360;-71
2023/03/26 08:46:55;;;;;;;;;;;9.30;88.40;;;;;;5119910;27;19920;-72
2023/03/26 08:49:35;;;;;;;;;;;9.30;88.60;;;;;;5135134;28;20373;-72
2023/03/26 08:52:23;;;;;;;;;;;9.30;88.60;;;;;;5134816;28;19938;-72
2023/03/26 08:55:08;;;;;;;;;;;9.30;89.10;;;;;;5134044;28;20371;-72
2023/03/26 08:57:46;;;;;;;;;;;9.30;88.70;;;;;;5134894;28;19927;-72
2023/03/26 09:00:25;;;;;;;;;;;9.30;88.80;;;;;;5134690;28;19919;-72
2023/03/26 09:03:10;;;;;;;;;;;9.40;88.80;;;;;;5134838;28;19915;-71
2023/03/26 09:05:56;;;;;;;;;;;9.50;88.80;;;;;;5134744;28;20079;-72
2023/03/26 09:08:39;;;;;;;;;;;9.50;88.70;;;;;;5101803;28;19923;-72
2023/03/26 09:11:14;;;;;;;;;;;9.60;88.70;;;;;;5114912;28;20436;-72
2023/03/26 09:13:57;;;;;;;;;;;9.50;88.60;;;;;;5134542;28;20276;-72
2023/03/26 09:16:32;;;;;;;;;;;9.50;88.60;;;;;;5134502;28;19923;-72
2023/03/26 09:19:07;;;;;;;;;;;9.60;88.60;;;;;;5134553;28;19915;-72
2023/03/26 09:21:47;;;;;;;;;;;9.60;88.50;;;;;;5134490;28;19926;-72
2023/03/26 09:24:28;;;;;;;;;;;9.50;88.50;;;;;;5134484;28;19922;-72
2023/03/26 09:27:13;;;;;;;;;;;9.60;88.60;;;;;;5134464;28;19926;-72
2023/03/26 09:29:59;;;;;;;;;;;9.60;88.50;;;;;;5118291;28;19912;-72
2023/03/26 09:32:38;;;;;;;;;;;9.60;88.60;;;;;;5132544;28;20118;-72
2023/03/26 09:35:23;;;;;;;;;;;9.70;88.50;;;;;;5134205;28;20002;-72
2023/03/26 09:37:58;;;;;;;;;;;9.70;88.50;;;;;;5114148;28;20022;-72
2023/03/26 09:40:28;;;;;;;;;;;9.70;89.10;;;;;;5114514;28;20020;-72
2023/03/26 09:42:57;;;;;;;;;;;9.70;88.50;;;;;;5114605;28;19915;-72
2023/03/26 09:45:39;;;;;;;;;;;9.80;88.40;;;;;;5134205;28;19921;-72
2023/03/26 09:48:17;;;;;;;;;;;9.90;88.50;;;;;;5134096;28;19911;-72
2023/03/26 09:50:49;;;;;;;;;;;9.80;88.40;;;;;;5134096;28;19919;-72
2023/03/26 09:53:29;;;;;;;;;;;9.90;88.40;;;;;;5134062;28;19956;-72
2023/03/26 09:56:09;;;;;;;;;;;9.90;88.40;;;;;;5134143;28;19968;-72
2023/03/26 09:58:41;;;;;;;;;;;9.80;88.40;;;;;;5133232;27;20022;-72
2023/03/26 10:01:26;;;;;;;;;;;9.90;88.40;;;;;;5133888;28;19926;-72
2023/03/26 10:03:59;;;;;;;;;;;9.90;88.50;;;;;;5134244;28;19958;-72
2023/03/26 10:06:36;;;;;;;;;;;9.90;88.40;;;;;;5133805;28;19958;-72
2023/03/26 10:09:09;;;;;;;;;;;9.90;88.40;;;;;;5133714;28;20014;-73
2023/03/26 10:11:47;;;;;;;;;;;9.90;88.50;;;;;;5115490;28;20006;-72
2023/03/26 10:14:33;;;;;;;;;;;9.80;88.60;;;;;;5133889;28;19915;-72
2023/03/26 10:17:14;;;;;;;;;;;9.90;88.70;;;;;;5133662;28;19915;-72
2023/03/26 10:19:45;;;;;;;;;;;9.90;88.80;;;;;;5133722;28;19919;-73
2023/03/26 10:22:27;;;;;;;;;;;10.00;88.70;;;;;;5133709;28;20027;-72
2023/03/26 10:25:09;;;;;;;;;;;10.00;88.70;;;;;;5133627;28;19915;-72
2023/03/26 10:27:42;;;;;;;;;;;10.00;88.50;;;;;;5113566;28;20339;-72
2023/03/26 10:30:24;;;;;;;;;;;10.00;89.10;;;;;;5133594;28;20046;-72
2023/03/26 10:33:02;;;;;;;;;;;10.10;88.60;;;;;;5133493;28;19916;-72
2023/03/26 10:35:37;;;;;;;;;;;10.00;88.60;;;;;;5133465;28;19919;-72
2023/03/26 10:38:12;;;;;;;;;;;10.20;88.60;;;;;;5133406;28;19938;-72
2023/03/26 10:40:58;;;;;;;;;;;10.10;88.40;;;;;;5114181;28;20369;-72
2023/03/26 10:43:35;;;;;;;;;;;10.30;88.40;;;;;;5133423;28;20288;-72
2023/03/26 10:46:15;;;;;;;;;;;10.40;88.30;;;;;;5133390;28;19938;-71
2023/03/26 10:48:53;;;;;;;;;;;10.50;88.10;;;;;;5133343;28;20391;-72
2023/03/26 10:51:24;;;;;;;;;;;10.70;88.00;;;;;;5129674;28;19964;-72
2023/03/26 10:53:55;;;;;;;;;;;10.90;87.80;;;;;;5129763;28;20016;-72
2023/03/26 10:56:26;;;;;;;;;;;10.90;87.50;;;;;;5130013;28;19911;-73
2023/03/26 10:58:53;;;;;;;;;;;11.00;87.30;;;;;;5129940;28;19915;-72
2023/03/26 11:01:22;;;;;;;;;;;11.10;87.10;;;;;;5133329;28;19976;-72
2023/03/26 11:03:53;;;;;;;;;;;11.10;87.00;;;;;;5133348;28;20403;-72
2023/03/26 11:06:25;;;;;;;;;;;11.10;86.90;;;;;;5133651;28;19922;-72
2023/03/26 11:08:56;;;;;;;;;;;11.00;86.90;;;;;;5112783;28;19915;-73
2023/03/26 11:11:28;;;;;;;;;;;10.90;87.20;;;;;;5113604;28;19916;-72
2023/03/26 11:13:59;;;;;;;;;;;10.70;87.50;;;;;;5114799;28;20407;-72
2023/03/26 11:16:29;;;;;;;;;;;10.80;87.80;;;;;;5133110;28;19916;-72
2023/03/26 11:19:01;;;;;;;;;;;10.70;88.00;;;;;;5133041;28;20368;-72
2023/03/26 11:21:32;;;;;;;;;;;10.50;88.30;;;;;;5133177;28;19934;-72
2023/03/26 11:24:17;;;;;;;;;;;10.40;88.70;;;;;;5133431;28;19916;-72
2023/03/26 11:26:57;;;;;;;;;;;10.30;88.80;;;;;;5133221;28;19916;-72
2023/03/26 11:29:35;;;;;;;;;;;10.30;89.10;;;;;;5136390;28;20349;-71
2023/03/26 11:32:05;;;;;;;;;;;10.30;89.30;;;;;;5136269;28;19915;-71
2023/03/26 11:34:35;;;;;;;;;;;10.20;89.30;;;;;;5136276;28;19960;-72
2023/03/26 11:37:04;;;;;;;;;;;10.20;89.30;;;;;;5136234;28;19921;-72
2023/03/26 11:39:36;;;;;;;;;;;10.10;89.30;;;;;;5136236;28;20365;-72
2023/03/26 11:42:06;;;;;;;;;;;10.10;89.50;;;;;;5136136;28;20359;-71
2023/03/26 11:44:38;;;;;;;;;;;10.00;89.60;;;;;;5136317;28;19922;-71
2023/03/26 11:47:08;;;;;;;;;;;9.90;89.60;;;;;;5136040;28;20380;-72
2023/03/26 11:49:34;;;;;;;;;;;9.90;89.80;;;;;;5135906;28;19916;-71
2023/03/26 11:52:01;;;;;;;;;;;9.90;90.10;;;;;;5135957;28;19922;-71
2023/03/26 11:54:27;;;;;;;;;;;9.80;89.70;;;;;;5135877;28;19917;-71
2023/03/26 11:56:57;;;;;;;;;;;9.90;89.70;;;;;;5135823;28;20089;-71
2023/03/26 11:59:26;;;;;;;;;;;9.80;89.60;;;;;;5135782;28;19922;-72
2023/03/26 12:01:55;;;;;;;;;;;9.80;89.60;;;;;;5116225;28;19920;-72
2023/03/26 12:04:26;;;;;;;;;;;9.90;89.70;;;;;;5135673;28;19923;-71
2023/03/26 12:06:55;;;;;;;;;;;9.90;89.60;;;;;;5135713;28;19915;-71
2023/03/26 12:09:21;;;;;;;;;;;9.80;89.50;;;;;;5135665;28;20449;-71
2023/03/26 12:11:48;;;;;;;;;;;9.90;89.60;;;;;;5135642;28;19953;-71
2023/03/26 12:14:18;;;;;;;;;;;9.80;89.50;;;;;;5135669;28;19930;-71
2023/03/26 12:17:00;;;;;;;;;;;9.90;89.60;;;;;;5117343;28;19919;-71
2023/03/26 12:19:27;;;;;;;;;;;9.80;89.40;;;;;;5135521;28;19916;-71
2023/03/26 12:21:53;;;;;;;;;;;9.90;89.60;;;;;;5134917;27;19926;-72
2023/03/26 12:24:30;;;;;;;;;;;9.80;89.60;;;;;;5135391;28;20384;-71
2023/03/26 12:27:00;;;;;;;;;;;9.70;89.70;;;;;;5135373;28;19968;-71
2023/03/26 12:29:27;;;;;;;;;;;9.50;89.70;;;;;;5135365;28;20280;-71
2023/03/26 12:31:57;;;;;;;;;;;9.40;89.90;;;;;;5135447;28;19920;-72
2023/03/26 12:34:29;;;;;;;;;;;9.40;90.00;;;;;;5135267;28;19922;-71
2023/03/26 12:36:58;;;;;;;;;;;9.30;90.10;;;;;;5135135;28;19938;-71
2023/03/26 12:39:28;;;;;;;;;;;9.30;90.10;;;;;;5114984;28;19915;-71
2023/03/26 12:41:55;;;;;;;;;;;9.20;90.10;;;;;;5135193;28;19927;-71
2023/03/26 12:44:24;;;;;;;;;;;9.20;90.10;;;;;;5135154;28;19923;-71
2023/03/26 12:46:52;;;;;;;;;;;9.20;90.00;;;;;;5116110;28;19965;-71
2023/03/26 12:49:19;;;;;;;;;;;9.30;90.00;;;;;;5135030;28;19915;-72
2023/03/26 12:51:51;;;;;;;;;;;9.40;90.00;;;;;;5135237;28;20018;-71
2023/03/26 12:54:36;;;;;;;;;;;9.40;89.80;;;;;;5132357;28;19971;-71
2023/03/26 12:57:15;;;;;;;;;;;9.40;89.60;;;;;;5116233;28;19963;-71
2023/03/26 12:59:53;;;;;;;;;;;9.50;89.60;;;;;;5134923;28;19915;-71
2023/03/26 13:02:28;;;;;;;;;;;9.60;89.60;;;;;;5135019;28;20049;-72
2023/03/26 13:05:00;;;;;;;;;;;9.60;89.40;;;;;;5134903;28;19915;-71
2023/03/26 13:07:35;;;;;;;;;;;9.50;89.30;;;;;;5134838;28;19988;-72
2023/03/26 13:10:21;;;;;;;;;;;9.50;89.20;;;;;;5116542;28;20312;-71
2023/03/26 13:12:54;;;;;;;;;;;9.50;89.20;;;;;;5119363;28;20386;-71
2023/03/26 13:15:23;;;;;;;;;;;9.40;89.20;;;;;;5135446;28;20014;-72
2023/03/26 13:17:53;;;;;;;;;;;9.30;89.30;;;;;;5135056;28;19916;-72
2023/03/26 13:20:25;;;;;;;;;;;9.30;89.50;;;;;;5134531;28;19975;-71
2023/03/26 13:22:56;;;;;;;;;;;9.20;89.60;;;;;;5134586;28;20369;-71
2023/03/26 13:25:28;;;;;;;;;;;9.20;89.60;;;;;;5134563;28;19988;-72
2023/03/26 13:28:05;;;;;;;;;;;9.10;89.70;;;;;;5134830;28;19964;-71
2023/03/26 13:30:35;;;;;;;;;;;9.10;89.90;;;;;;5134506;28;19954;-71
2023/03/26 13:33:15;;;;;;;;;;;9.00;90.00;;;;;;5134098;27;20010;-71
2023/03/26 13:35:55;;;;;;;;;;;8.90;90.00;;;;;;5131802;28;19911;-71
2023/03/26 13:38:28;;;;;;;;;;;8.90;90.10;;;;;;5134233;28;19919;-71
2023/03/26 13:41:05;;;;;;;;;;;8.90;90.10;;;;;;5134141;28;20021;-71
2023/03/26 13:43:36;;;;;;;;;;;8.80;90.00;;;;;;5134141;28;19930;-71
2023/03/26 13:46:08;;;;;;;;;;;8.80;90.10;;;;;;5134192;28;20009;-71
2023/03/26 13:48:38;;;;;;;;;;;8.80;90.10;;;;;;5134173;28;19915;-72
2023/03/26 13:51:08;;;;;;;;;;;8.80;90.10;;;;;;5115480;28;19958;-71
2023/03/26 13:53:42;;;;;;;;;;;8.80;90.10;;;;;;5134215;28;19923;-71
2023/03/26 13:56:11;;;;;;;;;;;8.90;90.10;;;;;;5115715;28;19915;-71
2023/03/26 13:58:40;;;;;;;;;;;9.00;90.10;;;;;;5115629;28;19922;-71
2023/03/26 14:01:08;;;;;;;;;;;9.00;90.00;;;;;;5133819;28;20302;-71
2023/03/26 14:03:43;;;;;;;;;;;9.00;90.00;;;;;;5134257;28;19920;-71
2023/03/26 14:06:26;;;;;;;;;;;9.10;90.00;;;;;;5133913;28;20380;-71
2023/03/26 14:08:56;;;;;;;;;;;9.10;89.80;;;;;;5133790;28;20284;-71
2023/03/26 14:11:34;;;;;;;;;;;9.30;89.70;;;;;;5134151;28;19938;-72
2023/03/26 14:14:12;;;;;;;;;;;9.30;89.50;;;;;;5133974;28;20287;-71
2023/03/26 14:16:43;;;;;;;;;;;9.40;89.20;;;;;;5133818;28;19927;-71
2023/03/26 14:19:25;;;;;;;;;;;9.40;89.00;;;;;;5115225;28;19915;-72
2023/03/26 14:22:08;;;;;;;;;;;9.50;88.90;;;;;;5133860;28;20358;-72
2023/03/26 14:24:42;;;;;;;;;;;9.50;88.70;;;;;;5131095;28;19980;-72
2023/03/26 14:27:18;;;;;;;;;;;9.60;88.60;;;;;;5133642;28;19945;-72
2023/03/26 14:30:03;;;;;;;;;;;9.60;88.60;;;;;;5115451;28;20287;-71
2023/03/26 14:32:35;;;;;;;;;;;9.50;88.60;;;;;;5117667;28;19915;-72
2023/03/26 14:35:11;;;;;;;;;;;9.50;88.50;;;;;;5133570;28;19950;-71
2023/03/26 14:37:49;;;;;;;;;;;9.50;88.50;;;;;;5133446;28;19915;-71
2023/03/26 14:40:29;;;;;;;;;;;9.50;88.60;;;;;;5133376;28;19958;-71
2023/03/26 14:43:12;;;;;;;;;;;9.40;88.70;;;;;;5133490;28;20343;-72
2023/03/26 14:45:49;;;;;;;;;;;9.50;88.70;;;;;;5135019;27;19916;-71
2023/03/26 14:48:30;;;;;;;;;;;9.50;88.70;;;;;;5137066;28;19915;-71
2023/03/26 14:51:09;;;;;;;;;;;9.50;88.60;;;;;;5134933;28;19971;-72